createdAt,value
2018-07-13T00:00:12.513Z,1010.18
2018-07-13T00:01:12.422Z,1010.21
2018-07-13T00:02:12.331Z,1010.21
2018-07-13T00:03:12.226Z,1010.22
2018-07-13T00:04:12.133Z,1010.21
2018-07-13T00:05:12.047Z,1010.24
2018-07-13T00:06:11.944Z,1010.24
2018-07-13T00:07:11.848Z,1010.24
2018-07-13T00:08:11.747Z,1010.27
2018-07-13T00:09:11.655Z,1010.26
2018-07-13T00:10:11.562Z,1010.25
2018-07-13T00:11:11.466Z,1010.27
2018-07-13T00:12:11.372Z,1010.29
2018-07-13T00:13:11.278Z,1010.31
2018-07-13T00:14:11.175Z,1010.28
2018-07-13T00:15:11.089Z,1010.28
2018-07-13T00:16:10.998Z,1010.21
2018-07-13T00:17:10.892Z,1010.25
2018-07-13T00:18:10.803Z,1010.22
2018-07-13T00:19:10.695Z,1010.17
2018-07-13T00:20:10.603Z,1010.21
2018-07-13T00:21:10.518Z,1010.21
2018-07-13T00:22:10.427Z,1010.19
2018-07-13T00:23:10.318Z,1010.16
2018-07-13T00:24:10.216Z,1010.13
2018-07-13T00:25:10.127Z,1010.16
2018-07-13T00:26:10.036Z,1010.10
2018-07-13T00:27:09.936Z,1010.12
2018-07-13T00:28:09.846Z,1010.11
2018-07-13T00:29:09.738Z,1010.15
2018-07-13T00:30:09.644Z,1010.11
2018-07-13T00:31:09.809Z,1010.13
2018-07-13T00:32:09.455Z,1010.14
2018-07-13T00:33:09.369Z,1010.11
2018-07-13T00:34:09.276Z,1010.16
2018-07-13T00:35:09.168Z,1010.19
2018-07-13T00:36:09.077Z,1010.16
2018-07-13T00:37:08.979Z,1010.18
2018-07-13T00:38:08.887Z,1010.17
2018-07-13T00:39:08.791Z,1010.20
2018-07-13T00:40:08.690Z,1010.20
2018-07-13T00:41:08.847Z,1010.18
2018-07-13T00:42:08.505Z,1010.15
2018-07-13T00:43:08.406Z,1010.20
2018-07-13T00:44:08.316Z,1010.19
2018-07-13T00:45:08.210Z,1010.14
2018-07-13T00:46:08.119Z,1010.13
2018-07-13T00:47:08.034Z,1010.17
2018-07-13T00:48:07.930Z,1010.16
2018-07-13T00:49:07.849Z,1010.18
2018-07-13T00:50:07.734Z,1010.20
2018-07-13T00:51:07.638Z,1010.23
2018-07-13T00:52:07.548Z,1010.20
2018-07-13T00:53:07.453Z,1010.24
2018-07-13T00:54:07.360Z,1010.22
2018-07-13T00:55:07.252Z,1010.17
2018-07-13T00:56:07.165Z,1010.20
2018-07-13T00:57:07.068Z,1010.21
2018-07-13T00:58:06.965Z,1010.20
2018-07-13T00:59:06.878Z,1010.20
2018-07-13T01:00:06.776Z,1010.23
2018-07-13T01:01:06.983Z,1010.22
2018-07-13T01:02:06.604Z,1010.21
2018-07-13T01:03:06.492Z,1010.21
2018-07-13T01:04:06.402Z,1010.23
2018-07-13T01:05:06.296Z,1010.23
2018-07-13T01:06:06.205Z,1010.28
2018-07-13T01:07:06.099Z,1010.31
2018-07-13T01:08:06.008Z,1010.31
2018-07-13T01:09:05.925Z,1010.29
2018-07-13T01:10:05.816Z,1010.27
2018-07-13T01:11:05.727Z,1010.32
2018-07-13T01:12:05.619Z,1010.32
2018-07-13T01:13:05.532Z,1010.26
2018-07-13T01:14:05.430Z,1010.25
2018-07-13T01:15:05.340Z,1010.21
2018-07-13T01:16:05.249Z,1010.25
2018-07-13T01:17:05.141Z,1010.28
2018-07-13T01:18:05.049Z,1010.26
2018-07-13T01:19:04.950Z,1010.28
2018-07-13T01:20:04.858Z,1010.23
2018-07-13T01:21:04.771Z,1010.26
2018-07-13T01:22:04.668Z,1010.31
2018-07-13T01:23:04.572Z,1010.33
2018-07-13T01:24:04.468Z,1010.36
2018-07-13T01:25:04.383Z,1010.39
2018-07-13T01:26:04.279Z,1010.33
2018-07-13T01:27:04.184Z,1010.32
2018-07-13T01:28:04.093Z,1010.33
2018-07-13T01:29:03.988Z,1010.36
2018-07-13T01:30:03.906Z,1010.35
2018-07-13T01:31:03.797Z,1010.35
2018-07-13T01:32:03.707Z,1010.34
2018-07-13T01:33:03.601Z,1010.34
2018-07-13T01:34:03.510Z,1010.33
2018-07-13T01:35:03.412Z,1010.34
2018-07-13T01:36:03.322Z,1010.31
2018-07-13T01:37:03.240Z,1010.32
2018-07-13T01:38:03.124Z,1010.29
2018-07-13T01:39:03.030Z,1010.29
2018-07-13T01:40:02.927Z,1010.30
2018-07-13T01:41:02.839Z,1010.25
2018-07-13T01:42:02.737Z,1010.27
2018-07-13T01:43:02.641Z,1010.29
2018-07-13T01:44:02.549Z,1010.27
2018-07-13T01:45:02.449Z,1010.28
2018-07-13T01:46:02.358Z,1010.29
2018-07-13T01:47:02.260Z,1010.29
2018-07-13T01:48:02.169Z,1010.30
2018-07-13T01:49:02.058Z,1010.24
2018-07-13T01:50:01.969Z,1010.29
2018-07-13T01:51:01.869Z,1010.30
2018-07-13T01:52:01.777Z,1010.26
2018-07-13T01:53:01.677Z,1010.28
2018-07-13T01:54:01.587Z,1010.31
2018-07-13T01:55:01.489Z,1010.29
2018-07-13T01:56:01.390Z,1010.31
2018-07-13T01:57:01.297Z,1010.29
2018-07-13T01:58:01.196Z,1010.29
2018-07-13T01:59:01.106Z,1010.33
2018-07-13T02:00:01.003Z,1010.33
2018-07-13T02:01:00.911Z,1010.32
2018-07-13T02:02:00.807Z,1010.30
2018-07-13T02:03:00.713Z,1010.32
2018-07-13T02:04:00.622Z,1010.33
2018-07-13T02:05:00.525Z,1010.35
2018-07-13T02:06:00.423Z,1010.33
2018-07-13T02:07:00.326Z,1010.36
2018-07-13T02:08:00.224Z,1010.33
2018-07-13T02:09:00.130Z,1010.33
2018-07-13T02:10:00.048Z,1010.34
2018-07-13T02:10:59.939Z,1010.34
2018-07-13T02:11:59.850Z,1010.33
2018-07-13T02:12:59.742Z,1010.33
2018-07-13T02:13:59.650Z,1010.33
2018-07-13T02:14:59.551Z,1010.36
2018-07-13T02:15:59.461Z,1010.34
2018-07-13T02:16:59.359Z,1010.30
2018-07-13T02:17:59.283Z,1010.31
2018-07-13T02:18:59.160Z,1010.33
2018-07-13T02:19:59.070Z,1010.28
2018-07-13T02:20:58.970Z,1010.28
2018-07-13T02:21:58.878Z,1010.26
2018-07-13T02:22:58.771Z,1010.26
2018-07-13T02:23:58.680Z,1010.25
2018-07-13T02:24:58.590Z,1010.24
2018-07-13T02:25:58.487Z,1010.27
2018-07-13T02:26:58.391Z,1010.26
2018-07-13T02:27:58.298Z,1010.27
2018-07-13T02:28:58.203Z,1010.29
2018-07-13T02:29:58.100Z,1010.29
2018-07-13T02:30:58.013Z,1010.24
2018-07-13T02:31:57.912Z,1010.27
2018-07-13T02:32:57.816Z,1010.28
2018-07-13T02:33:57.817Z,1010.32
2018-07-13T02:34:57.677Z,1010.34
2018-07-13T02:35:57.516Z,1010.35
2018-07-13T02:36:57.434Z,1010.29
2018-07-13T02:37:57.327Z,1010.35
2018-07-13T02:38:57.296Z,1010.38
2018-07-13T02:39:57.130Z,1010.34
2018-07-13T02:40:57.036Z,1010.30
2018-07-13T02:41:56.933Z,1010.34
2018-07-13T02:42:56.847Z,1010.32
2018-07-13T02:43:56.744Z,1010.32
2018-07-13T02:44:56.648Z,1010.32
2018-07-13T02:45:56.850Z,1010.36
2018-07-13T02:46:56.459Z,1010.34
2018-07-13T02:47:56.355Z,1010.32
2018-07-13T02:48:56.266Z,1010.33
2018-07-13T02:49:56.165Z,1010.32
2018-07-13T02:50:56.070Z,1010.32
2018-07-13T02:51:55.964Z,1010.40
2018-07-13T02:52:55.876Z,1010.39
2018-07-13T02:53:55.772Z,1010.42
2018-07-13T02:54:55.679Z,1010.46
2018-07-13T02:55:55.575Z,1010.49
2018-07-13T02:56:55.485Z,1010.49
2018-07-13T02:57:55.382Z,1010.48
2018-07-13T02:58:55.296Z,1010.48
2018-07-13T02:59:55.192Z,1010.51
2018-07-13T03:00:55.096Z,1010.49
2018-07-13T03:01:54.993Z,1010.47
2018-07-13T03:02:54.910Z,1010.52
2018-07-13T03:03:54.803Z,1010.54
2018-07-13T03:04:54.713Z,1010.56
2018-07-13T03:05:54.860Z,1010.56
2018-07-13T03:06:54.504Z,1010.57
2018-07-13T03:07:54.412Z,1010.62
2018-07-13T03:08:54.312Z,1010.58
2018-07-13T03:09:54.220Z,1010.63
2018-07-13T03:10:54.114Z,1010.61
2018-07-13T03:11:54.023Z,1010.67
2018-07-13T03:12:53.921Z,1010.62
2018-07-13T03:13:53.833Z,1010.60
2018-07-13T03:14:53.730Z,1010.62
2018-07-13T03:15:53.633Z,1010.62
2018-07-13T03:16:53.533Z,1010.62
2018-07-13T03:17:53.441Z,1010.65
2018-07-13T04:05:48.775Z,1010.76
2018-07-13T04:06:48.665Z,1010.76
2018-07-13T04:07:48.586Z,1010.78
2018-07-13T04:08:48.472Z,1010.78
2018-07-13T04:09:48.382Z,1010.77
2018-07-13T04:10:48.283Z,1010.82
2018-07-13T04:11:48.191Z,1010.78
2018-07-13T04:12:48.082Z,1010.80
2018-07-13T04:13:47.991Z,1010.80
2018-07-13T04:14:47.925Z,1010.81
2018-07-13T04:15:48.054Z,1010.84
2018-07-13T04:16:47.703Z,1010.79
2018-07-13T04:17:47.611Z,1010.81
2018-07-13T04:18:47.502Z,1010.84
2018-07-13T04:19:47.411Z,1010.80
2018-07-13T04:20:47.311Z,1010.82
2018-07-13T04:21:47.221Z,1010.82
2018-07-13T04:22:47.114Z,1010.85
2018-07-13T04:23:47.027Z,1010.83
2018-07-13T04:24:46.931Z,1010.87
2018-07-13T04:25:46.827Z,1010.87
2018-07-13T04:26:46.730Z,1010.89
2018-07-13T04:27:46.637Z,1010.91
2018-07-13T04:28:46.601Z,1010.93
2018-07-13T04:29:46.441Z,1010.92
2018-07-13T04:30:46.360Z,1010.96
2018-07-13T04:31:46.250Z,1010.95
2018-07-13T04:32:46.157Z,1010.96
2018-07-13T04:33:46.054Z,1010.94
2018-07-13T04:34:45.961Z,1010.98
2018-07-13T04:35:46.107Z,1010.98
2018-07-13T04:36:45.771Z,1010.95
2018-07-13T04:37:45.696Z,1010.98
2018-07-13T04:38:45.571Z,1010.99
2018-07-13T04:39:45.481Z,1011.01
2018-07-13T04:40:45.414Z,1011.02
2018-07-13T04:41:45.288Z,1011.05
2018-07-13T04:42:45.205Z,1011.05
2018-07-13T04:43:45.098Z,1011.05
2018-07-13T04:44:45.001Z,1011.05
2018-07-13T04:45:44.898Z,1011.05
2018-07-13T04:46:44.815Z,1011.06
2018-07-13T04:47:44.722Z,1011.05
2018-07-13T04:48:44.618Z,1011.00
2018-07-13T04:49:44.528Z,1011.05
2018-07-13T04:50:44.432Z,1011.01
2018-07-13T04:51:44.330Z,1011.03
2018-07-13T04:52:44.244Z,1011.00
2018-07-13T04:53:44.152Z,1011.02
2018-07-13T04:54:44.044Z,1011.01
2018-07-13T04:55:43.954Z,1011.04
2018-07-13T04:56:43.861Z,1011.03
2018-07-13T04:57:43.757Z,1011.04
2018-07-13T04:58:43.672Z,1011.06
2018-07-13T04:59:43.580Z,1011.09
2018-07-13T05:00:43.543Z,1011.10
2018-07-13T05:01:43.416Z,1011.13
2018-07-13T05:02:43.298Z,1011.17
2018-07-13T05:03:43.194Z,1011.15
2018-07-13T05:04:43.105Z,1011.18
2018-07-13T05:05:43.013Z,1011.16
2018-07-13T05:06:42.904Z,1011.21
2018-07-13T05:07:42.813Z,1011.23
2018-07-13T05:08:42.727Z,1011.25
2018-07-13T05:09:42.637Z,1011.17
2018-07-13T05:10:42.533Z,1011.21
2018-07-13T05:11:42.440Z,1011.22
2018-07-13T05:12:42.346Z,1011.17
2018-07-13T05:13:42.254Z,1011.14
2018-07-13T05:14:42.155Z,1011.16
2018-07-13T05:15:42.065Z,1011.16
2018-07-13T05:16:41.971Z,1011.16
2018-07-13T05:17:41.881Z,1011.15
2018-07-13T05:18:41.812Z,1011.23
2018-07-13T05:19:41.694Z,1011.20
2018-07-13T05:20:41.849Z,1011.14
2018-07-13T05:21:41.529Z,1011.22
2018-07-13T05:22:41.399Z,1011.21
2018-07-13T05:23:41.309Z,1011.17
2018-07-13T05:24:41.222Z,1011.21
2018-07-13T05:25:41.131Z,1011.25
2018-07-13T05:26:41.024Z,1011.24
2018-07-13T05:27:40.932Z,1011.27
2018-07-13T05:28:40.845Z,1011.27
2018-07-13T05:29:40.753Z,1011.28
2018-07-13T05:30:40.662Z,1011.26
2018-07-13T05:31:40.565Z,1011.23
2018-07-13T05:32:40.466Z,1011.25
2018-07-13T05:33:40.376Z,1011.27
2018-07-13T05:34:40.278Z,1011.32
2018-07-13T05:35:40.186Z,1011.23
2018-07-13T05:36:40.099Z,1011.28
2018-07-13T05:37:40.010Z,1011.26
2018-07-13T05:38:39.912Z,1011.28
2018-07-13T05:39:39.809Z,1011.31
2018-07-13T05:40:39.871Z,1011.32
2018-07-13T05:41:39.631Z,1011.33
2018-07-13T05:42:39.536Z,1011.33
2018-07-13T05:43:39.432Z,1011.33
2018-07-13T05:44:39.348Z,1011.37
2018-07-13T05:45:39.249Z,1011.36
2018-07-13T05:46:39.163Z,1011.38
2018-07-13T05:47:39.072Z,1011.40
2018-07-13T05:48:38.966Z,1011.39
2018-07-13T05:49:38.878Z,1011.40
2018-07-13T05:50:38.788Z,1011.43
2018-07-13T05:51:38.701Z,1011.46
2018-07-13T05:52:38.606Z,1011.46
2018-07-13T05:53:38.503Z,1011.48
2018-07-13T05:54:38.408Z,1011.46
2018-07-13T05:55:38.319Z,1011.50
2018-07-13T05:56:38.230Z,1011.42
2018-07-13T05:57:38.138Z,1011.45
2018-07-13T05:58:38.044Z,1011.46
2018-07-13T05:59:37.941Z,1011.53
2018-07-13T06:00:37.864Z,1011.50
2018-07-13T06:01:37.761Z,1011.49
2018-07-13T06:02:37.674Z,1011.54
2018-07-13T06:03:37.583Z,1011.54
2018-07-13T06:04:37.487Z,1011.58
2018-07-13T06:05:37.396Z,1011.55
2018-07-13T06:06:37.309Z,1011.56
2018-07-13T06:07:37.219Z,1011.58
2018-07-13T06:08:37.131Z,1011.63
2018-07-13T06:09:37.066Z,1011.58
2018-07-13T06:10:36.933Z,1011.64
2018-07-13T06:11:36.842Z,1011.67
2018-07-13T06:12:36.762Z,1011.69
2018-07-13T06:13:36.660Z,1011.68
2018-07-13T06:14:36.631Z,1011.67
2018-07-13T06:15:36.538Z,1011.73
2018-07-13T06:16:36.402Z,1011.75
2018-07-13T06:17:36.311Z,1011.68
2018-07-13T06:18:36.218Z,1011.64
2018-07-13T06:19:36.125Z,1011.68
2018-07-13T06:20:36.040Z,1011.70
2018-07-13T06:21:35.952Z,1011.69
2018-07-13T06:22:35.854Z,1011.72
2018-07-13T06:23:35.764Z,1011.73
2018-07-13T06:24:35.671Z,1011.68
2018-07-13T06:25:35.580Z,1011.71
2018-07-13T06:26:35.494Z,1011.73
2018-07-13T06:27:35.403Z,1011.69
2018-07-13T06:28:35.308Z,1011.76
2018-07-13T06:29:35.218Z,1011.74
2018-07-13T06:30:35.134Z,1011.73
2018-07-13T06:31:35.148Z,1011.73
2018-07-13T06:32:34.963Z,1011.82
2018-07-13T06:33:34.872Z,1011.81
2018-07-13T06:34:34.778Z,1011.83
2018-07-13T06:35:34.686Z,1011.78
2018-07-13T06:36:34.599Z,1011.87
2018-07-13T06:37:34.510Z,1011.83
2018-07-13T06:38:34.412Z,1011.78
2018-07-13T06:39:34.320Z,1011.76
2018-07-13T06:40:34.236Z,1011.76
2018-07-13T06:41:34.141Z,1011.78
2018-07-13T06:42:34.055Z,1011.82
2018-07-13T06:43:33.963Z,1011.77
2018-07-13T06:44:33.873Z,1011.80
2018-07-13T06:45:33.781Z,1011.78
2018-07-13T06:46:33.692Z,1011.79
2018-07-13T06:47:33.601Z,1011.81
2018-07-13T06:48:33.509Z,1011.78
2018-07-13T06:49:33.430Z,1011.81
2018-07-13T06:50:33.341Z,1011.80
2018-07-13T06:51:33.233Z,1011.77
2018-07-13T06:52:33.158Z,1011.82
2018-07-13T06:53:33.057Z,1011.84
2018-07-13T06:54:32.965Z,1011.90
2018-07-13T06:55:32.870Z,1011.96
2018-07-13T06:56:32.778Z,1011.95
2018-07-13T06:57:32.686Z,1012.01
2018-07-13T06:58:32.600Z,1012.06
2018-07-13T06:59:32.508Z,1012.07
2018-07-13T07:00:32.415Z,1012.08
2018-07-13T07:01:32.336Z,1011.94
2018-07-13T07:02:32.237Z,1012.01
2018-07-13T07:03:32.146Z,1012.00
2018-07-13T07:04:32.082Z,1012.00
2018-07-13T07:05:31.979Z,1011.96
2018-07-13T07:06:31.884Z,1012.02
2018-07-13T07:07:31.813Z,1011.99
2018-07-13T07:08:31.707Z,1012.11
2018-07-13T07:09:31.613Z,1012.15
2018-07-13T07:10:31.518Z,1012.12
2018-07-13T07:11:31.428Z,1012.14
2018-07-13T07:12:31.338Z,1012.14
2018-07-13T07:13:31.250Z,1012.18
2018-07-13T07:14:31.174Z,1012.01
2018-07-13T07:15:31.069Z,1012.04
2018-07-13T07:16:30.974Z,1012.02
2018-07-13T07:17:30.895Z,1012.00
2018-07-13T07:18:30.810Z,1012.06
2018-07-13T07:19:30.717Z,1012.11
2018-07-13T07:20:30.629Z,1012.11
2018-07-13T07:21:30.538Z,1012.16
2018-07-13T07:22:30.442Z,1012.22
2018-07-13T07:23:30.351Z,1012.24
2018-07-13T07:24:30.268Z,1012.31
2018-07-13T07:25:30.185Z,1012.25
2018-07-13T07:26:30.089Z,1012.28
2018-07-13T07:27:29.999Z,1012.21
2018-07-13T07:28:29.910Z,1012.21
2018-07-13T07:29:29.820Z,1012.42
2018-07-13T07:30:29.732Z,1012.48
2018-07-13T07:31:29.649Z,1012.46
2018-07-13T07:32:29.546Z,1012.45
2018-07-13T07:33:29.456Z,1012.36
2018-07-13T07:34:29.369Z,1012.25
2018-07-13T07:35:29.279Z,1012.20
2018-07-13T07:36:29.185Z,1012.23
2018-07-13T07:37:29.106Z,1012.24
2018-07-13T07:38:29.143Z,1012.15
2018-07-13T07:39:28.921Z,1012.15
2018-07-13T07:40:29.087Z,1012.16
2018-07-13T07:41:28.745Z,1012.18
2018-07-13T07:42:28.651Z,1012.11
2018-07-13T07:43:28.563Z,1012.14
2018-07-13T07:44:28.479Z,1012.15
2018-07-13T07:45:28.389Z,1012.14
2018-07-13T07:46:28.302Z,1012.11
2018-07-13T07:47:28.213Z,1012.10
2018-07-13T07:48:28.118Z,1012.15
2018-07-13T07:49:28.027Z,1012.15
2018-07-13T07:50:27.939Z,1012.19
2018-07-13T07:51:27.848Z,1012.17
2018-07-13T07:52:27.761Z,1012.15
2018-07-13T07:53:27.672Z,1012.18
2018-07-13T07:56:27.397Z,1012.12
2018-07-13T07:57:27.323Z,1012.13
2018-07-13T07:58:27.222Z,1012.18
2018-07-13T07:59:27.119Z,1012.20
2018-07-13T08:00:27.030Z,1012.18
2018-07-13T08:01:26.940Z,1012.25
2018-07-13T08:02:26.866Z,1012.27
2018-07-13T08:03:26.763Z,1012.27
2018-07-13T08:04:26.668Z,1012.26
2018-07-13T08:05:26.580Z,1012.30
2018-07-13T08:34:23.881Z,1012.32
2018-07-13T08:35:23.790Z,1012.32
2018-07-13T08:36:23.695Z,1012.35
2018-07-13T08:37:23.592Z,1012.35
2018-07-13T08:38:23.504Z,1012.36
2018-07-13T08:39:23.415Z,1012.36
2018-07-13T08:40:23.328Z,1012.31
2018-07-13T08:41:23.237Z,1012.29
2018-07-13T08:42:23.130Z,1012.29
2018-07-13T08:43:23.039Z,1012.36
2018-07-13T08:44:22.948Z,1012.35
2018-07-13T08:45:22.869Z,1012.36
2018-07-13T08:46:22.750Z,1012.37
2018-07-13T08:47:22.660Z,1012.34
2018-07-13T08:48:22.577Z,1012.36
2018-07-13T08:49:22.479Z,1012.40
2018-07-13T08:50:22.420Z,1012.37
2018-07-13T08:51:22.307Z,1012.39
2018-07-13T08:52:22.210Z,1012.39
2018-07-13T08:53:22.102Z,1012.42
2018-07-13T08:54:22.017Z,1012.40
2018-07-13T08:55:21.925Z,1012.45
2018-07-13T08:56:21.844Z,1012.40
2018-07-13T08:57:21.730Z,1012.37
2018-07-13T08:58:21.634Z,1012.41
2018-07-13T08:59:21.546Z,1012.33
2018-07-13T09:00:21.460Z,1012.38
2018-07-13T09:01:21.369Z,1012.38
2018-07-13T09:02:21.262Z,1012.39
2018-07-13T09:03:21.171Z,1012.38
2018-07-13T09:04:21.080Z,1012.38
2018-07-13T09:05:20.987Z,1012.43
2018-07-13T09:06:20.962Z,1012.44
2018-07-13T09:07:20.824Z,1012.45
2018-07-13T09:08:20.715Z,1012.44
2018-07-13T09:09:20.612Z,1012.48
2018-07-13T09:10:20.526Z,1012.52
2018-07-13T09:11:20.434Z,1012.50
2018-07-13T09:12:20.344Z,1012.50
2018-07-13T09:13:20.255Z,1012.55
2018-07-13T09:14:20.159Z,1012.56
2018-07-13T09:15:20.057Z,1012.57
2018-07-13T09:16:19.968Z,1012.63
2018-07-13T09:17:19.876Z,1012.64
2018-07-13T09:18:19.804Z,1012.64
2018-07-13T09:19:19.690Z,1012.67
2018-07-13T09:20:19.852Z,1012.66
2018-07-13T09:21:19.517Z,1012.65
2018-07-13T09:22:19.413Z,1012.70
2018-07-13T09:23:19.322Z,1012.69
2018-07-13T09:24:19.225Z,1012.70
2018-07-13T09:25:19.133Z,1012.72
2018-07-13T09:26:19.050Z,1012.69
2018-07-13T09:27:18.956Z,1012.69
2018-07-13T09:28:18.880Z,1012.70
2018-07-13T09:29:18.777Z,1012.69
2018-07-13T09:30:18.685Z,1012.67
2018-07-13T09:31:18.599Z,1012.68
2018-07-13T09:32:18.491Z,1012.70
2018-07-13T09:33:18.412Z,1012.68
2018-07-13T09:34:18.305Z,1012.74
2018-07-13T09:35:18.213Z,1012.71
2018-07-13T09:36:18.125Z,1012.73
2018-07-13T09:38:17.983Z,1012.69
2018-07-13T09:39:17.856Z,1012.67
2018-07-13T09:40:18.011Z,1012.69
2018-07-13T09:41:17.669Z,1012.69
2018-07-13T09:42:17.570Z,1012.72
2018-07-13T09:43:17.481Z,1012.72
2018-07-13T09:44:17.386Z,1012.72
2018-07-13T09:45:17.297Z,1012.73
2018-07-13T09:46:17.201Z,1012.70
2018-07-13T09:47:17.110Z,1012.72
2018-07-13T09:48:17.025Z,1012.72
2018-07-13T09:49:16.937Z,1012.68
2018-07-13T09:50:16.839Z,1012.66
2018-07-13T09:51:16.750Z,1012.62
2018-07-13T09:52:16.656Z,1012.64
2018-07-13T09:53:16.574Z,1012.64
2018-07-13T09:54:16.537Z,1012.64
2018-07-13T09:55:16.389Z,1012.66
2018-07-13T09:56:16.297Z,1012.66
2018-07-13T09:57:16.203Z,1012.66
2018-07-13T09:58:16.177Z,1012.63
2018-07-13T09:59:16.026Z,1012.67
2018-07-13T10:00:15.935Z,1012.60
2018-07-13T10:01:15.846Z,1012.60
2018-07-13T10:02:15.750Z,1012.62
2018-07-13T10:03:15.660Z,1012.65
2018-07-13T10:04:15.570Z,1012.65
2018-07-13T10:05:15.480Z,1012.64
2018-07-13T10:06:15.385Z,1012.59
2018-07-13T10:07:15.294Z,1012.61
2018-07-13T10:08:15.205Z,1012.61
2018-07-13T10:09:15.114Z,1012.58
2018-07-13T10:10:15.027Z,1012.57
2018-07-13T10:11:14.937Z,1012.55
2018-07-13T10:12:14.842Z,1012.59
2018-07-13T10:13:14.764Z,1012.57
2018-07-13T10:14:14.681Z,1012.60
2018-07-13T10:15:14.600Z,1012.62
2018-07-13T10:16:14.495Z,1012.63
2018-07-13T10:17:14.405Z,1012.63
2018-07-13T10:18:14.308Z,1012.64
2018-07-13T10:19:14.217Z,1012.62
2018-07-13T10:20:14.133Z,1012.62
2018-07-13T10:21:14.042Z,1012.63
2018-07-13T10:22:13.946Z,1012.59
2018-07-13T10:23:13.855Z,1012.62
2018-07-13T10:24:13.763Z,1012.63
2018-07-13T10:25:13.672Z,1012.62
2018-07-13T10:26:13.597Z,1012.66
2018-07-13T10:27:13.507Z,1012.68
2018-07-13T10:28:13.416Z,1012.68
2018-07-13T10:29:13.402Z,1012.70
2018-07-13T10:30:13.231Z,1012.67
2018-07-13T10:31:13.140Z,1012.65
2018-07-13T10:32:13.050Z,1012.67
2018-07-13T10:33:12.961Z,1012.65
2018-07-13T10:34:12.873Z,1012.66
2018-07-13T10:35:12.794Z,1012.67
2018-07-13T10:36:12.686Z,1012.62
2018-07-13T10:37:12.596Z,1012.61
2018-07-13T10:38:12.509Z,1012.63
2018-07-13T10:39:12.431Z,1012.63
2018-07-13T10:40:12.341Z,1012.58
2018-07-13T10:41:12.251Z,1012.62
2018-07-13T10:42:12.157Z,1012.61
2018-07-13T10:43:12.068Z,1012.59
2018-07-13T10:44:11.979Z,1012.63
2018-07-13T10:45:11.889Z,1012.57
2018-07-13T10:46:11.793Z,1012.61
2018-07-13T10:47:11.702Z,1012.59
2018-07-13T10:48:11.612Z,1012.61
2018-07-13T10:49:11.518Z,1012.60
2018-07-13T10:50:11.432Z,1012.56
2018-07-13T10:51:11.343Z,1012.57
2018-07-13T10:52:11.248Z,1012.60
2018-07-13T10:53:11.159Z,1012.56
2018-07-13T10:54:11.083Z,1012.57
2018-07-13T10:55:10.994Z,1012.59
2018-07-13T10:56:10.900Z,1012.57
2018-07-13T10:57:10.810Z,1012.56
2018-07-13T10:58:10.715Z,1012.55
2018-07-13T10:59:10.624Z,1012.55
2018-07-13T11:00:10.787Z,1012.57
2018-07-13T11:01:10.447Z,1012.57
2018-07-13T11:02:10.351Z,1012.57
2018-07-13T11:03:10.260Z,1012.59
2018-07-13T11:04:10.171Z,1012.57
2018-07-13T11:05:10.081Z,1012.58
2018-07-13T11:06:09.996Z,1012.54
2018-07-13T11:07:09.904Z,1012.54
2018-07-13T11:08:09.885Z,1012.51
2018-07-13T11:09:09.727Z,1012.50
2018-07-13T11:10:09.641Z,1012.48
2018-07-13T11:11:09.550Z,1012.48
2018-07-13T11:12:09.463Z,1012.48
2018-07-13T11:13:09.384Z,1012.48
2018-07-13T11:14:09.280Z,1012.52
2018-07-13T11:15:09.185Z,1012.49
2018-07-13T11:16:09.098Z,1012.47
2018-07-13T11:17:09.010Z,1012.46
2018-07-13T11:18:08.912Z,1012.49
2018-07-13T11:19:08.824Z,1012.46
2018-07-13T11:20:08.991Z,1012.47
2018-07-13T11:21:08.654Z,1012.48
2018-07-13T11:22:08.576Z,1012.50
2018-07-13T11:23:08.473Z,1012.44
2018-07-13T11:24:08.418Z,1012.49
2018-07-13T11:25:08.290Z,1012.41
2018-07-13T11:26:08.202Z,1012.41
2018-07-13T11:27:08.112Z,1012.45
2018-07-13T11:28:08.021Z,1012.39
2018-07-13T11:29:07.940Z,1012.46
2018-07-13T11:30:07.848Z,1012.39
2018-07-13T11:31:07.755Z,1012.40
2018-07-13T11:32:07.670Z,1012.39
2018-07-13T11:33:07.579Z,1012.39
2018-07-13T11:34:07.485Z,1012.39
2018-07-13T11:35:07.393Z,1012.41
2018-07-13T11:36:07.315Z,1012.39
2018-07-13T11:37:07.458Z,1012.31
2018-07-13T11:38:07.135Z,1012.32
2018-07-13T11:39:07.045Z,1012.31
2018-07-13T11:40:06.952Z,1012.29
2018-07-13T11:41:06.862Z,1012.28
2018-07-13T11:42:06.775Z,1012.29
2018-07-13T11:43:06.695Z,1012.31
2018-07-13T11:44:06.636Z,1012.28
2018-07-13T11:45:06.512Z,1012.26
2018-07-13T11:46:06.418Z,1012.23
2018-07-13T11:47:06.327Z,1012.23
2018-07-13T11:48:06.253Z,1012.22
2018-07-13T11:49:06.162Z,1012.23
2018-07-13T11:50:06.068Z,1012.24
2018-07-13T11:51:05.977Z,1012.23
2018-07-13T11:52:05.951Z,1012.16
2018-07-13T11:53:05.808Z,1012.20
2018-07-13T11:54:05.727Z,1012.14
2018-07-13T11:55:05.633Z,1012.13
2018-07-13T11:56:05.535Z,1012.14
2018-07-13T11:57:05.446Z,1012.14
2018-07-13T11:58:05.369Z,1012.10
2018-07-13T11:59:05.278Z,1012.11
2018-07-13T12:00:05.204Z,1012.09
2018-07-13T12:01:05.099Z,1012.08
2018-07-13T12:02:05.006Z,1012.14
2018-07-13T12:03:04.926Z,1012.10
2018-07-13T12:04:04.840Z,1012.10
2018-07-13T12:05:04.748Z,1012.08
2018-07-13T12:06:04.656Z,1012.09
2018-07-13T12:07:04.576Z,1012.09
2018-07-13T12:08:04.482Z,1012.13
2018-07-13T12:09:04.392Z,1012.07
2018-07-13T12:10:04.306Z,1012.04
2018-07-13T12:11:04.226Z,1012.08
2018-07-13T12:12:04.135Z,1012.12
2018-07-13T12:13:04.044Z,1012.15
2018-07-13T12:14:03.969Z,1012.16
2018-07-13T12:15:03.879Z,1012.11
2018-07-13T12:16:03.798Z,1012.12
2018-07-13T12:17:03.707Z,1012.08
2018-07-13T12:18:03.612Z,1012.13
2018-07-13T12:19:03.538Z,1012.13
2018-07-13T12:20:03.447Z,1012.10
2018-07-13T12:21:03.369Z,1012.08
2018-07-13T12:22:03.274Z,1012.08
2018-07-13T12:23:03.182Z,1012.09
2018-07-13T12:24:03.106Z,1012.08
2018-07-13T12:25:03.016Z,1012.07
2018-07-13T12:26:02.928Z,1012.09
2018-07-13T12:27:02.889Z,1012.10
2018-07-13T12:28:02.755Z,1012.04
2018-07-13T12:29:02.662Z,1012.04
2018-07-13T12:30:02.577Z,1012.01
2018-07-13T12:31:02.498Z,1012.01
2018-07-13T12:32:02.408Z,1012.01
2018-07-13T12:33:02.333Z,1012.00
2018-07-13T12:34:02.237Z,1011.98
2018-07-13T12:35:02.144Z,1012.04
2018-07-13T12:36:02.054Z,1012.06
2018-07-13T12:37:01.963Z,1011.97
2018-07-13T12:38:01.915Z,1011.94
2018-07-13T12:39:01.798Z,1011.96
2018-07-13T12:40:01.704Z,1011.92
2018-07-13T12:41:01.616Z,1011.98
2018-07-13T12:42:01.530Z,1011.99
2018-07-13T12:45:01.264Z,1011.97
2018-07-13T12:46:01.231Z,1011.93
2018-07-13T12:47:01.092Z,1011.93
2018-07-13T12:48:00.998Z,1011.90
2018-07-13T12:49:00.910Z,1011.91
2018-07-13T12:50:00.821Z,1011.90
2018-07-13T12:51:00.732Z,1011.87
2018-07-13T12:52:00.636Z,1011.91
2018-07-13T12:53:00.556Z,1011.90
2018-07-13T12:54:00.543Z,1011.92
2018-07-13T12:55:00.392Z,1011.88
2018-07-13T12:56:00.294Z,1011.89
2018-07-13T12:57:00.200Z,1011.87
2018-07-13T12:58:00.107Z,1011.87
2018-07-13T12:59:00.014Z,1011.88
2018-07-13T12:59:59.937Z,1011.80
2018-07-13T13:00:59.852Z,1011.82
2018-07-13T13:01:59.753Z,1011.78
2018-07-13T13:02:59.663Z,1011.79
2018-07-13T13:03:59.586Z,1011.77
2018-07-13T13:04:59.483Z,1011.77
2018-07-13T13:05:59.395Z,1011.75
2018-07-13T13:06:59.305Z,1011.80
2018-07-13T13:07:59.210Z,1011.72
2018-07-13T13:08:59.121Z,1011.69
2018-07-13T13:09:59.034Z,1011.73
2018-07-13T13:10:58.954Z,1011.77
2018-07-13T13:11:58.862Z,1011.80
2018-07-13T13:12:58.770Z,1011.80
2018-07-13T13:13:58.676Z,1011.76
2018-07-13T13:14:58.585Z,1011.77
2018-07-13T13:15:58.501Z,1011.72
2018-07-13T13:16:58.412Z,1011.72
2018-07-13T13:17:58.315Z,1011.76
2018-07-13T13:18:58.223Z,1011.78
2018-07-13T13:19:58.132Z,1011.78
2018-07-13T13:20:58.040Z,1011.76
2018-07-13T13:21:58.021Z,1011.65
2018-07-13T13:22:57.864Z,1011.71
2018-07-13T13:23:57.768Z,1011.66